Time,TemperatureF,DewpointF,PressureIn,WindDirection,WindDirectionDegrees,WindSpeedMPH,WindSpeedGustMPH,Humidity,HourlyPrecipIn,Conditions,Clouds,dailyrainin,SoftwareType,DateUTC
2013-03-06 00:00:00,33.1,30.3,29.70,NNW,338,7.4,7.4,89,0.00,,,0.00,WUHU216HW,2013-03-06 08:00:00,
2013-03-06 00:05:00,33.1,30.3,29.69,North,0,5.1,7.4,89,0.00,,,0.00,WUHU216HW,2013-03-06 08:05:00,
2013-03-06 00:10:00,33.1,30.5,29.69,North,0,4.3,5.6,90,0.00,,,0.00,WUHU216HW,2013-03-06 08:10:00,
2013-03-06 00:15:00,32.9,30.3,29.70,North,0,4.3,5.6,90,0.00,,,0.00,WUHU216HW,2013-03-06 08:15:00,
2013-03-06 00:20:00,32.9,30.3,29.70,NNW,338,3.8,4.9,90,0.00,,,0.00,WUHU216HW,2013-03-06 08:20:00,
2013-03-06 00:25:00,32.9,30.3,29.70,North,0,2.5,4.5,90,0.00,,,0.00,WUHU216HW,2013-03-06 08:25:00,
2013-03-06 00:30:00,32.9,30.6,29.69,NW,315,4.3,4.5,91,0.00,,,0.00,WUHU216HW,2013-03-06 08:30:00,
2013-03-06 00:35:00,32.9,30.6,29.69,North,0,3.4,4.9,91,0.00,,,0.00,WUHU216HW,2013-03-06 08:35:00,
2013-03-06 00:40:00,32.8,30.4,29.69,North,0,1.8,4.9,91,0.00,,,0.00,WUHU216HW,2013-03-06 08:40:00,
2013-03-06 00:45:00,32.8,30.4,29.68,NNW,338,4.0,4.0,91,0.00,,,0.00,WUHU216HW,2013-03-06 08:45:00,
2013-03-06 00:50:00,32.8,30.4,29.68,North,0,2.7,5.8,91,0.00,,,0.00,WUHU216HW,2013-03-06 08:50:00,
2013-03-06 00:55:00,32.8,30.4,29.68,North,0,1.8,5.8,91,0.00,,,0.00,WUHU216HW,2013-03-06 08:55:00,
2013-03-06 01:00:00,32.8,30.4,29.68,NNW,338,2.9,4.3,91,0.00,,,0.00,WUHU216HW,2013-03-06 09:00:00,
2013-03-06 01:05:00,32.8,30.4,29.67,North,0,1.6,4.3,91,0.00,,,0.00,WUHU216HW,2013-03-06 09:05:00,
2013-03-06 01:10:00,32.8,30.4,29.67,NNW,338,1.1,2.7,91,0.00,,,0.00,WUHU216HW,2013-03-06 09:10:00,
2013-03-06 01:15:00,32.6,30.2,29.67,North,0,1.3,3.4,91,0.00,,,0.00,WUHU216HW,2013-03-06 09:15:00,
2013-03-06 01:20:00,32.6,30.2,29.67,North,0,2.2,3.4,91,0.00,,,0.00,WUHU216HW,2013-03-06 09:20:00,
2013-03-06 01:25:00,32.4,30.3,29.67,NW,315,5.1,5.1,92,0.00,,,0.00,WUHU216HW,2013-03-06 09:25:00,
2013-03-06 01:30:00,32.4,30.3,29.66,North,0,2.5,5.1,92,0.00,,,0.00,WUHU216HW,2013-03-06 09:30:00,
2013-03-06 01:35:00,32.4,30.3,29.66,NNW,338,3.4,3.4,92,0.00,,,0.00,WUHU216HW,2013-03-06 09:35:00,
2013-03-06 01:40:00,32.4,30.3,29.66,NNW,338,1.8,3.4,92,0.00,,,0.00,WUHU216HW,2013-03-06 09:40:00,
2013-03-06 01:45:00,32.4,30.3,29.66,NNW,338,1.6,2.9,92,0.00,,,0.00,WUHU216HW,2013-03-06 09:45:00,
2013-03-06 01:50:00,32.2,30.2,29.66,North,0,1.8,2.2,92,0.00,,,0.00,WUHU216HW,2013-03-06 09:50:00,
2013-03-06 01:55:00,32.2,30.2,29.65,WNW,293,0.9,3.6,92,0.00,,,0.00,WUHU216HW,2013-03-06 09:55:00,
2013-03-06 02:00:00,32.2,30.2,29.65,North,0,1.8,3.6,92,0.00,,,0.00,WUHU216HW,2013-03-06 10:00:00,
2013-03-06 02:05:00,32.0,30.1,29.65,NW,315,0.0,2.2,92,0.00,,,0.00,WUHU216HW,2013-03-06 10:05:00,
2013-03-06 02:10:00,32.0,30.1,29.65,NW,315,0.9,1.1,92,0.00,,,0.00,WUHU216HW,2013-03-06 10:10:00,
2013-03-06 02:15:00,32.0,30.1,29.65,NW,315,0.4,0.9,92,0.00,,,0.00,WUHU216HW,2013-03-06 10:15:00,
2013-03-06 02:20:00,32.0,30.1,29.64,North,0,0.4,1.8,92,0.00,,,0.00,WUHU216HW,2013-03-06 10:20:00,
2013-03-06 02:25:00,32.0,30.1,29.64,NNW,338,0.2,1.8,92,0.00,,,0.00,WUHU216HW,2013-03-06 10:25:00,
2013-03-06 02:30:00,32.0,30.1,29.63,NNW,338,1.1,1.3,92,0.00,,,0.00,WUHU216HW,2013-03-06 10:30:00,
2013-03-06 02:35:00,32.0,29.8,29.63,NNW,338,0.9,1.3,91,0.00,,,0.00,WUHU216HW,2013-03-06 10:35:00,
2013-03-06 02:40:00,32.0,29.8,29.63,NNW,338,0.4,1.8,91,0.00,,,0.00,WUHU216HW,2013-03-06 10:40:00,
2013-03-06 02:45:00,32.0,29.8,29.63,NNW,338,0.7,2.5,91,0.00,,,0.00,WUHU216HW,2013-03-06 10:45:00,
2013-03-06 02:50:00,32.0,29.8,29.63,North,0,0.4,2.5,91,0.00,,,0.00,WUHU216HW,2013-03-06 10:50:00,
2013-03-06 02:55:00,32.0,29.8,29.63,NNW,338,0.7,2.5,91,0.00,,,0.00,WUHU216HW,2013-03-06 10:55:00,
2013-03-06 03:00:00,32.0,29.8,29.63,North,0,0.4,2.2,91,0.00,,,0.00,WUHU216HW,2013-03-06 11:00:00,
2013-03-06 03:05:00,31.9,29.6,29.62,WNW,293,0.7,1.3,91,0.00,,,0.00,WUHU216HW,2013-03-06 11:05:00,
2013-03-06 03:10:00,31.9,29.6,29.62,WNW,293,0.9,1.3,91,0.00,,,0.00,WUHU216HW,2013-03-06 11:10:00,
2013-03-06 03:15:00,31.9,29.6,29.62,NNW,338,1.1,1.8,91,0.00,,,0.00,WUHU216HW,2013-03-06 11:15:00,
2013-03-06 03:20:00,31.9,29.6,29.62,NW,315,1.3,1.8,91,0.00,,,0.00,WUHU216HW,2013-03-06 11:20:00,
2013-03-06 03:25:00,31.9,29.6,29.62,NW,315,1.1,1.6,91,0.00,,,0.00,WUHU216HW,2013-03-06 11:25:00,
2013-03-06 03:30:00,31.9,29.6,29.62,WNW,293,0.7,1.8,91,0.00,,,0.00,WUHU216HW,2013-03-06 11:30:00,
2013-03-06 03:35:00,31.7,29.4,29.61,NNW,338,1.1,1.8,91,0.00,,,0.00,WUHU216HW,2013-03-06 11:35:00,
2013-03-06 03:40:00,31.9,29.6,29.60,NNW,338,1.1,2.2,91,0.00,,,0.00,WUHU216HW,2013-03-06 11:40:00,
2013-03-06 03:45:00,31.9,29.6,29.60,NNW,338,0.4,2.2,91,0.00,,,0.00,WUHU216HW,2013-03-06 11:45:00,
2013-03-06 03:50:00,31.9,29.6,29.60,North,0,1.1,2.0,91,0.00,,,0.00,WUHU216HW,2013-03-06 11:50:00,
2013-03-06 03:55:00,31.7,29.7,29.60,NW,315,0.4,2.0,92,0.00,,,0.00,WUHU216HW,2013-03-06 11:55:00,
2013-03-06 04:00:00,31.7,29.7,29.60,NNW,338,0.4,2.0,92,0.00,,,0.00,WUHU216HW,2013-03-06 12:00:00,
2013-03-06 04:05:00,31.7,29.7,29.59,NNW,338,0.7,2.2,92,0.00,,,0.00,WUHU216HW,2013-03-06 12:05:00,
2013-03-06 04:10:00,31.5,29.5,29.59,North,0,0.2,2.2,92,0.00,,,0.00,WUHU216HW,2013-03-06 12:10:00,
2013-03-06 04:15:00,31.5,29.5,29.59,NW,315,0.4,1.6,92,0.00,,,0.00,WUHU216HW,2013-03-06 12:15:00,
2013-03-06 04:20:00,31.5,29.3,29.59,NNW,338,2.2,2.2,91,0.00,,,0.00,WUHU216HW,2013-03-06 12:20:00,
2013-03-06 04:25:00,31.5,29.3,29.59,WNW,293,0.4,2.2,91,0.00,,,0.00,WUHU216HW,2013-03-06 12:25:00,
2013-03-06 04:30:00,31.5,29.5,29.59,NW,315,0.4,1.8,92,0.00,,,0.00,WUHU216HW,2013-03-06 12:30:00,
2013-03-06 04:35:00,31.5,29.5,29.59,NNW,338,1.1,1.8,92,0.00,,,0.00,WUHU216HW,2013-03-06 12:35:00,
2013-03-06 04:40:00,31.5,29.5,29.59,NNW,338,0.0,1.6,92,0.00,,,0.00,WUHU216HW,2013-03-06 12:40:00,
2013-03-06 04:45:00,31.5,29.5,29.59,WNW,293,0.9,1.6,92,0.00,,,0.00,WUHU216HW,2013-03-06 12:45:00,
2013-03-06 04:50:00,31.5,29.5,29.58,NNW,338,0.7,1.6,92,0.00,,,0.00,WUHU216HW,2013-03-06 12:50:00,
2013-03-06 04:55:00,31.5,29.5,29.58,NNW,338,2.0,2.2,92,0.00,,,0.00,WUHU216HW,2013-03-06 12:55:00,
2013-03-06 05:00:00,31.5,29.5,29.58,NNW,338,0.4,2.2,92,0.00,,,0.00,WUHU216HW,2013-03-06 13:00:00,
2013-03-06 05:05:00,31.5,29.5,29.59,WNW,293,0.0,1.8,92,0.00,,,0.00,WUHU216HW,2013-03-06 13:05:00,
2013-03-06 05:10:00,31.7,29.7,29.59,North,0,0.2,1.8,92,0.00,,,0.00,WUHU216HW,2013-03-06 13:10:00,
2013-03-06 05:15:00,31.5,29.5,29.59,North,0,0.7,1.8,92,0.00,,,0.00,WUHU216HW,2013-03-06 13:15:00,
2013-03-06 05:20:00,31.7,29.7,29.59,NNE,23,1.1,2.9,92,0.00,,,0.00,WUHU216HW,2013-03-06 13:20:00,
2013-03-06 05:25:00,31.7,29.7,29.59,NNE,23,0.7,2.9,92,0.00,,,0.00,WUHU216HW,2013-03-06 13:25:00,
2013-03-06 05:30:00,31.7,29.7,29.59,NNE,23,0.4,1.3,92,0.00,,,0.00,WUHU216HW,2013-03-06 13:30:00,
2013-03-06 05:35:00,31.7,29.7,29.59,NNE,23,0.2,1.3,92,0.00,,,0.00,WUHU216HW,2013-03-06 13:35:00,
2013-03-06 05:40:00,31.7,29.7,29.59,North,0,0.4,0.7,92,0.00,,,0.00,WUHU216HW,2013-03-06 13:40:00,
2013-03-06 05:45:00,31.7,29.7,29.58,North,0,0.9,1.1,92,0.00,,,0.00,WUHU216HW,2013-03-06 13:45:00,
2013-03-06 05:50:00,31.7,29.7,29.58,North,0,1.1,1.6,92,0.00,,,0.00,WUHU216HW,2013-03-06 13:50:00,
2013-03-06 05:55:00,31.7,29.7,29.58,North,0,0.2,1.6,92,0.00,,,0.00,WUHU216HW,2013-03-06 13:55:00,
2013-03-06 06:00:00,31.7,29.7,29.58,North,0,0.4,1.6,92,0.00,,,0.00,WUHU216HW,2013-03-06 14:00:00,
2013-03-06 06:05:00,31.7,29.7,29.58,North,0,0.4,1.6,92,0.00,,,0.00,WUHU216HW,2013-03-06 14:05:00,
2013-03-06 06:10:00,31.7,29.7,29.58,North,0,1.6,1.6,92,0.00,,,0.00,WUHU216HW,2013-03-06 14:10:00,
2013-03-06 06:15:00,31.7,29.7,29.57,North,0,0.4,1.6,92,0.00,,,0.00,WUHU216HW,2013-03-06 14:15:00,
2013-03-06 06:20:00,31.7,29.7,29.57,North,0,1.1,1.8,92,0.00,,,0.00,WUHU216HW,2013-03-06 14:20:00,
2013-03-06 06:25:00,31.7,29.9,29.57,North,0,0.0,1.8,93,0.00,,,0.00,WUHU216HW,2013-03-06 14:25:00,
2013-03-06 06:30:00,31.7,29.9,29.57,North,0,0.0,1.1,93,0.00,,,0.00,WUHU216HW,2013-03-06 14:30:00,
2013-03-06 06:35:00,31.7,29.9,29.57,North,0,0.4,1.1,93,0.00,,,0.00,WUHU216HW,2013-03-06 14:35:00,
2013-03-06 06:40:00,31.7,29.9,29.57,North,0,0.7,0.7,93,0.00,,,0.00,WUHU216HW,2013-03-06 14:40:00,
2013-03-06 06:45:00,31.7,29.9,29.57,North,0,0.7,0.7,93,0.00,,,0.00,WUHU216HW,2013-03-06 14:45:00,
2013-03-06 06:50:00,31.5,29.7,29.57,North,0,0.7,1.6,93,0.00,,,0.00,WUHU216HW,2013-03-06 14:50:00,
2013-03-06 06:55:00,31.7,29.9,29.57,NNW,338,0.2,1.6,93,0.00,,,0.00,WUHU216HW,2013-03-06 14:55:00,
2013-03-06 07:00:00,31.7,29.9,29.57,NNW,338,0.0,0.9,93,0.00,,,0.00,WUHU216HW,2013-03-06 15:00:00,
2013-03-06 07:05:00,31.7,29.9,29.57,NNW,338,0.0,0.4,93,0.00,,,0.00,WUHU216HW,2013-03-06 15:05:00,
2013-03-06 07:10:00,31.7,29.9,29.57,NNW,338,0.0,0.4,93,0.00,,,0.00,WUHU216HW,2013-03-06 15:10:00,
2013-03-06 07:15:00,31.9,30.1,29.57,NNW,338,0.4,0.9,93,0.00,,,0.00,WUHU216HW,2013-03-06 15:15:00,
2013-03-06 07:20:00,31.7,29.9,29.57,NNW,338,0.4,2.7,93,0.00,,,0.00,WUHU216HW,2013-03-06 15:20:00,
2013-03-06 07:25:00,31.9,30.1,29.56,NNW,338,1.1,2.7,93,0.00,,,0.00,WUHU216HW,2013-03-06 15:25:00,
2013-03-06 07:30:00,31.9,30.1,29.57,NNW,338,0.0,2.2,93,0.00,,,0.00,WUHU216HW,2013-03-06 15:30:00,
2013-03-06 07:35:00,31.9,30.1,29.57,NNW,338,0.4,1.3,93,0.00,,,0.00,WUHU216HW,2013-03-06 15:35:00,
2013-03-06 07:40:00,31.9,30.1,29.57,NNW,338,0.0,1.1,93,0.00,,,0.00,WUHU216HW,2013-03-06 15:40:00,
2013-03-06 07:45:00,31.9,30.1,29.57,NNW,338,0.0,1.1,93,0.00,,,0.00,WUHU216HW,2013-03-06 15:45:00,
2013-03-06 07:59:00,32.2,30.4,29.58,NNW,338,0.7,0.9,93,0.00,,,0.00,WUHU216HW,2013-03-06 15:59:00,
2013-03-06 08:04:00,32.2,30.4,29.58,NNW,338,0.2,1.1,93,0.00,,,0.00,WUHU216HW,2013-03-06 16:04:00,
2013-03-06 08:09:00,32.2,30.4,29.58,NNW,338,1.8,1.8,93,0.00,,,0.00,WUHU216HW,2013-03-06 16:09:00,
2013-03-06 08:14:00,32.2,30.4,29.58,NNW,338,0.9,1.8,93,0.00,,,0.00,WUHU216HW,2013-03-06 16:14:00,
2013-03-06 08:19:00,32.2,30.4,29.59,NNW,338,0.4,0.9,93,0.00,,,0.00,WUHU216HW,2013-03-06 16:19:00,
2013-03-06 08:24:00,32.4,30.6,29.59,NNW,338,0.4,0.9,93,0.00,,,0.00,WUHU216HW,2013-03-06 16:24:00,
2013-03-06 08:29:00,32.4,30.6,29.59,NNW,338,0.4,0.7,93,0.00,,,0.00,WUHU216HW,2013-03-06 16:29:00,
2013-03-06 08:34:00,32.2,30.4,29.59,NNW,338,0.4,1.1,93,0.00,,,0.00,WUHU216HW,2013-03-06 16:34:00,
2013-03-06 08:39:00,32.4,30.6,29.59,NNW,338,0.4,1.1,93,0.00,,,0.00,WUHU216HW,2013-03-06 16:39:00,
2013-03-06 08:44:00,32.4,30.6,29.59,NNW,338,0.0,0.7,93,0.00,,,0.00,WUHU216HW,2013-03-06 16:44:00,
2013-03-06 08:49:00,32.8,31.0,29.59,NNW,338,0.4,0.4,93,0.00,,,0.00,WUHU216HW,2013-03-06 16:49:00,
2013-03-06 08:54:00,32.8,31.0,29.60,NNW,338,0.0,0.4,93,0.00,,,0.00,WUHU216HW,2013-03-06 16:54:00,
2013-03-06 08:59:00,32.9,30.9,29.61,NNW,338,0.0,0.0,92,0.00,,,0.00,WUHU216HW,2013-03-06 16:59:00,
2013-03-06 09:04:00,33.1,31.1,29.61,NNW,338,0.0,0.0,92,0.00,,,0.00,WUHU216HW,2013-03-06 17:04:00,
2013-03-06 09:09:00,32.9,30.9,29.62,NNW,338,0.9,0.9,92,0.00,,,0.00,WUHU216HW,2013-03-06 17:09:00,
2013-03-06 09:14:00,32.8,30.7,29.62,WNW,293,2.2,2.2,92,0.00,,,0.00,WUHU216HW,2013-03-06 17:14:00,
2013-03-06 09:19:00,32.6,30.5,29.63,WNW,293,2.2,2.2,92,0.00,,,0.00,WUHU216HW,2013-03-06 17:19:00,
2013-03-06 09:24:00,32.6,30.5,29.63,West,270,0.0,2.2,92,0.00,,,0.00,WUHU216HW,2013-03-06 17:24:00,
2013-03-06 09:29:00,32.4,30.3,29.62,West,270,0.4,2.2,92,0.00,,,0.00,WUHU216HW,2013-03-06 17:29:00,
2013-03-06 09:34:00,32.4,30.6,29.62,WNW,293,0.2,1.3,93,0.00,,,0.00,WUHU216HW,2013-03-06 17:34:00,
2013-03-06 09:39:00,32.6,30.8,29.62,WNW,293,0.0,1.3,93,0.00,,,0.00,WUHU216HW,2013-03-06 17:39:00,
2013-03-06 09:44:00,32.6,30.8,29.62,West,270,0.9,0.9,93,0.00,,,0.00,WUHU216HW,2013-03-06 17:44:00,
2013-03-06 09:49:00,32.6,30.8,29.62,West,270,1.6,1.6,93,0.00,,,0.00,WUHU216HW,2013-03-06 17:49:00,
2013-03-06 09:54:00,32.6,30.8,29.62,West,270,1.6,1.6,93,0.00,,,0.00,WUHU216HW,2013-03-06 17:54:00,
2013-03-06 10:03:00,32.9,31.2,29.62,South,180,0.2,0.2,93,0.00,,,0.00,WUHU216HW,2013-03-06 18:03:00,
2013-03-06 10:08:00,32.9,31.2,29.62,South,180,0.2,0.2,93,0.00,,,0.00,WUHU216HW,2013-03-06 18:08:00,
2013-03-06 12:03:00,37.1,35.2,29.67,South,180,0.9,3.4,93,0.15,,,0.22,WUHU216HW,2013-03-06 20:03:00,
2013-03-06 12:08:00,37.6,35.7,29.67,South,180,3.1,3.4,93,0.13,,,0.22,WUHU216HW,2013-03-06 20:08:00,
2013-03-06 12:13:00,37.8,35.1,29.67,SSW,203,2.0,4.0,90,0.15,,,0.22,WUHU216HW,2013-03-06 20:13:00,
2013-03-06 12:18:00,38.2,35.5,29.67,SW,225,2.2,4.0,90,0.15,,,0.24,WUHU216HW,2013-03-06 20:18:00,
2013-03-06 12:23:00,38.9,36.2,29.67,SSW,203,5.4,5.4,90,0.13,,,0.26,WUHU216HW,2013-03-06 20:23:00,
2013-03-06 12:28:00,38.9,34.7,29.67,SW,225,7.4,7.4,85,0.13,,,0.26,WUHU216HW,2013-03-06 20:28:00,
2013-03-06 12:33:00,39.1,34.7,29.68,SSW,203,4.9,8.5,84,0.13,,,0.26,WUHU216HW,2013-03-06 20:33:00,
2013-03-06 12:38:00,39.1,34.0,29.68,SW,225,9.8,10.1,82,0.13,,,0.28,WUHU216HW,2013-03-06 20:38:00,
2013-03-06 12:43:00,39.2,34.6,29.69,SSW,203,11.2,11.2,83,0.11,,,0.28,WUHU216HW,2013-03-06 20:43:00,
2013-03-06 12:48:00,39.1,33.5,29.69,SW,225,9.8,11.2,80,0.13,,,0.31,WUHU216HW,2013-03-06 20:48:00,
2013-03-06 12:53:00,38.9,32.9,29.70,SSW,203,13.4,13.4,79,0.11,,,0.31,WUHU216HW,2013-03-06 20:53:00,
2013-03-06 12:58:00,38.7,32.8,29.70,WSW,248,9.6,13.4,79,0.11,,,0.31,WUHU216HW,2013-03-06 20:58:00,
2013-03-06 13:03:00,38.7,32.8,29.70,NW,315,6.9,9.6,79,0.09,,,0.31,WUHU216HW,2013-03-06 21:03:00,
2013-03-06 13:08:00,38.7,32.1,29.70,SW,225,11.9,15.7,77,0.09,,,0.31,WUHU216HW,2013-03-06 21:08:00,
2013-03-06 13:13:00,39.1,33.1,29.71,SSW,203,7.8,15.7,79,0.09,,,0.33,WUHU216HW,2013-03-06 21:13:00,
2013-03-06 13:18:00,38.9,32.9,29.71,WSW,248,4.9,13.4,79,0.06,,,0.33,WUHU216HW,2013-03-06 21:18:00,
2013-03-06 13:23:00,38.9,32.3,29.72,SSW,203,11.9,13.4,77,0.06,,,0.33,WUHU216HW,2013-03-06 21:23:00,
2013-03-06 13:28:00,38.9,32.3,29.72,SW,225,12.1,12.1,77,0.06,,,0.33,WUHU216HW,2013-03-06 21:28:00,
2013-03-06 13:33:00,38.7,31.8,29.72,SW,225,8.9,12.1,76,0.04,,,0.33,WUHU216HW,2013-03-06 21:33:00,
2013-03-06 13:38:00,38.7,31.8,29.72,SW,225,8.9,10.5,76,0.04,,,0.33,WUHU216HW,2013-03-06 21:38:00,
2013-03-06 13:50:00,38.5,31.6,29.73,SSW,203,9.6,9.6,76,0.02,,,0.33,WUHU216HW,2013-03-06 21:50:00,
2013-03-06 13:55:00,38.2,30.6,29.73,SW,225,9.8,9.8,74,0.02,,,0.33,WUHU216HW,2013-03-06 21:55:00,
2013-03-06 14:00:00,38.3,31.4,29.74,WSW,248,12.8,12.8,76,0.04,,,0.35,WUHU216HW,2013-03-06 22:00:00,
2013-03-06 14:05:00,38.2,31.0,29.74,SW,225,7.6,12.8,75,0.04,,,0.35,WUHU216HW,2013-03-06 22:05:00,
2013-03-06 14:10:00,38.2,30.2,29.75,SW,225,15.0,15.0,73,0.02,,,0.35,WUHU216HW,2013-03-06 22:10:00,
2013-03-06 14:15:00,38.2,30.6,29.75,West,270,8.5,15.0,74,0.02,,,0.35,WUHU216HW,2013-03-06 22:15:00,
2013-03-06 14:20:00,38.2,30.2,29.75,SW,225,9.8,15.0,73,0.02,,,0.35,WUHU216HW,2013-03-06 22:20:00,
2013-03-06 14:25:00,38.2,30.0,29.75,SSW,203,8.3,15.0,72,0.02,,,0.35,WUHU216HW,2013-03-06 22:25:00,
2013-03-06 14:30:00,38.2,29.6,29.75,WSW,248,7.6,10.5,71,0.02,,,0.35,WUHU216HW,2013-03-06 22:30:00,
2013-03-06 14:35:00,38.0,29.4,29.75,WSW,248,13.0,13.0,71,0.02,,,0.35,WUHU216HW,2013-03-06 22:35:00,
2013-03-06 14:40:00,37.8,29.6,29.76,WSW,248,8.7,13.0,72,0.02,,,0.35,WUHU216HW,2013-03-06 22:40:00,
2013-03-06 14:45:00,37.8,30.2,29.76,WSW,248,3.8,13.0,74,0.02,,,0.35,WUHU216HW,2013-03-06 22:45:00,
2013-03-06 14:50:00,37.8,30.0,29.76,SW,225,9.6,9.6,73,0.02,,,0.35,WUHU216HW,2013-03-06 22:50:00,
2013-03-06 14:55:00,37.8,30.2,29.77,WSW,248,5.4,9.6,74,0.02,,,0.35,WUHU216HW,2013-03-06 22:55:00,
2013-03-06 15:00:00,37.8,30.2,29.77,SSW,203,3.4,9.6,74,0.00,,,0.35,WUHU216HW,2013-03-06 23:00:00,
2013-03-06 15:05:00,37.8,30.0,29.77,South,180,6.3,6.5,73,0.00,,,0.35,WUHU216HW,2013-03-06 23:05:00,
2013-03-06 15:10:00,38.0,30.4,29.77,SW,225,6.0,7.6,74,0.00,,,0.35,WUHU216HW,2013-03-06 23:10:00,
2013-03-06 15:15:00,38.2,30.2,29.77,WSW,248,5.4,7.6,73,0.00,,,0.35,WUHU216HW,2013-03-06 23:15:00,
2013-03-06 15:20:00,38.2,30.0,29.78,WSW,248,5.4,7.6,72,0.00,,,0.35,WUHU216HW,2013-03-06 23:20:00,
2013-03-06 15:25:00,38.3,29.8,29.78,SSW,203,6.7,6.7,71,0.00,,,0.35,WUHU216HW,2013-03-06 23:25:00,
2013-03-06 15:30:00,38.5,30.2,29.78,WSW,248,5.1,8.5,72,0.00,,,0.35,WUHU216HW,2013-03-06 23:30:00,
2013-03-06 15:35:00,38.7,30.1,29.78,West,270,6.5,8.5,71,0.00,,,0.35,WUHU216HW,2013-03-06 23:35:00,
2013-03-06 15:40:00,38.9,30.2,29.78,West,270,4.7,8.5,71,0.00,,,0.35,WUHU216HW,2013-03-06 23:40:00,
2013-03-06 15:45:00,38.9,29.2,29.79,NW,315,2.0,8.3,68,0.00,,,0.35,WUHU216HW,2013-03-06 23:45:00,
2013-03-06 15:50:00,39.1,29.7,29.79,South,180,4.7,6.3,69,0.00,,,0.35,WUHU216HW,2013-03-06 23:50:00,
2013-03-06 15:55:00,39.2,29.5,29.79,SSW,203,8.3,8.3,68,0.00,,,0.35,WUHU216HW,2013-03-06 23:55:00,
2013-03-06 16:00:00,39.2,29.9,29.79,SW,225,5.4,8.3,69,0.00,,,0.35,WUHU216HW,2013-03-07 00:00:00,
2013-03-06 16:05:00,39.2,29.1,29.80,SSW,203,8.9,8.9,67,0.00,,,0.35,WUHU216HW,2013-03-07 00:05:00,
2013-03-06 16:10:00,39.6,28.4,29.80,SE,135,7.6,11.4,64,0.00,,,0.35,WUHU216HW,2013-03-07 00:10:00,
2013-03-06 16:15:00,39.6,28.4,29.80,SW,225,5.1,11.4,64,0.00,,,0.35,WUHU216HW,2013-03-07 00:15:00,
2013-03-06 16:20:00,39.6,28.0,29.80,SW,225,8.1,10.7,63,0.00,,,0.35,WUHU216HW,2013-03-07 00:20:00,
2013-03-06 16:25:00,39.4,27.8,29.80,West,270,10.5,10.7,63,0.00,,,0.35,WUHU216HW,2013-03-07 00:25:00,
2013-03-06 16:30:00,39.6,28.0,29.80,SW,225,8.1,10.5,63,0.00,,,0.35,WUHU216HW,2013-03-07 00:30:00,
2013-03-06 16:35:00,39.6,28.0,29.80,SW,225,5.8,10.5,63,0.00,,,0.35,WUHU216HW,2013-03-07 00:35:00,
2013-03-06 16:40:00,39.4,27.8,29.80,WSW,248,5.8,8.7,63,0.00,,,0.35,WUHU216HW,2013-03-07 00:40:00,
2013-03-06 16:45:00,39.6,28.0,29.80,WSW,248,7.2,8.7,63,0.00,,,0.35,WUHU216HW,2013-03-07 00:45:00,
2013-03-06 16:50:00,39.6,28.0,29.80,SW,225,11.2,11.2,63,0.00,,,0.35,WUHU216HW,2013-03-07 00:50:00,
2013-03-06 16:55:00,39.8,28.2,29.81,WSW,248,4.0,11.2,63,0.00,,,0.35,WUHU216HW,2013-03-07 00:55:00,
2013-03-06 17:00:00,39.6,28.0,29.80,SW,225,5.4,11.2,63,0.00,,,0.35,WUHU216HW,2013-03-07 01:00:00,
2013-03-06 17:05:00,39.8,27.4,29.80,WSW,248,5.4,6.5,61,0.00,,,0.35,WUHU216HW,2013-03-07 01:05:00,
2013-03-06 17:10:00,39.8,28.2,29.81,SW,225,2.5,6.3,63,0.00,,,0.35,WUHU216HW,2013-03-07 01:10:00,
2013-03-06 17:15:00,39.6,27.5,29.81,WSW,248,6.3,6.9,62,0.00,,,0.35,WUHU216HW,2013-03-07 01:15:00,
2013-03-06 17:20:00,39.6,27.5,29.81,SW,225,8.9,8.9,62,0.00,,,0.35,WUHU216HW,2013-03-07 01:20:00,
2013-03-06 17:25:00,39.6,28.0,29.82,SW,225,3.8,8.9,63,0.00,,,0.35,WUHU216HW,2013-03-07 01:25:00,
2013-03-06 17:30:00,39.6,28.0,29.82,SW,225,3.1,8.5,63,0.00,,,0.35,WUHU216HW,2013-03-07 01:30:00,
2013-03-06 17:35:00,39.2,28.0,29.82,SW,225,6.9,6.9,64,0.00,,,0.35,WUHU216HW,2013-03-07 01:35:00,
2013-03-06 17:40:00,38.9,28.5,29.82,SSW,203,6.3,10.3,66,0.00,,,0.35,WUHU216HW,2013-03-07 01:40:00,
2013-03-06 17:45:00,38.7,28.6,29.82,WSW,248,8.7,10.3,67,0.00,,,0.35,WUHU216HW,2013-03-07 01:45:00,
2013-03-06 17:50:00,38.5,28.4,29.82,WSW,248,4.7,8.7,67,0.00,,,0.35,WUHU216HW,2013-03-07 01:50:00,
2013-03-06 17:55:00,38.2,28.2,29.82,SW,225,5.4,7.4,67,0.00,,,0.35,WUHU216HW,2013-03-07 01:55:00,
2013-03-06 18:00:00,38.0,28.7,29.83,SSW,203,3.8,5.6,69,0.00,,,0.35,WUHU216HW,2013-03-07 02:00:00,
2013-03-06 18:05:00,37.8,28.5,29.83,WSW,248,6.3,6.3,69,0.00,,,0.35,WUHU216HW,2013-03-07 02:05:00,
2013-03-06 18:10:00,37.4,28.3,29.84,WSW,248,4.7,6.3,69,0.00,,,0.35,WUHU216HW,2013-03-07 02:10:00,
2013-03-06 18:15:00,37.4,28.6,29.84,SW,225,3.8,6.3,70,0.00,,,0.35,WUHU216HW,2013-03-07 02:15:00,
2013-03-06 18:20:00,37.1,27.9,29.84,SSW,203,4.0,6.0,69,0.00,,,0.35,WUHU216HW,2013-03-07 02:20:00,
2013-03-06 18:25:00,37.4,27.5,29.84,WSW,248,2.9,5.4,67,0.00,,,0.35,WUHU216HW,2013-03-07 02:25:00,
2013-03-06 18:30:00,37.4,27.9,29.85,SSW,203,4.5,5.4,68,0.00,,,0.35,WUHU216HW,2013-03-07 02:30:00,
2013-03-06 18:35:00,37.3,28.1,29.85,West,270,4.3,4.5,69,0.00,,,0.35,WUHU216HW,2013-03-07 02:35:00,
2013-03-06 18:40:00,37.1,27.9,29.85,WSW,248,3.8,4.7,69,0.00,,,0.35,WUHU216HW,2013-03-07 02:40:00,
2013-03-06 18:45:00,36.9,27.7,29.85,WSW,248,5.1,5.4,69,0.00,,,0.35,WUHU216HW,2013-03-07 02:45:00,
2013-03-06 18:50:00,37.1,27.9,29.86,SW,225,3.1,6.9,69,0.00,,,0.35,WUHU216HW,2013-03-07 02:50:00,
2013-03-06 18:55:00,36.9,28.1,29.86,SW,225,4.7,6.9,70,0.00,,,0.35,WUHU216HW,2013-03-07 02:55:00,
2013-03-06 19:00:00,36.7,28.3,29.87,SSW,203,4.3,4.7,71,0.00,,,0.35,WUHU216HW,2013-03-07 03:00:00,
2013-03-06 19:05:00,36.5,29.0,29.87,SW,225,8.1,8.1,74,0.00,,,0.35,WUHU216HW,2013-03-07 03:05:00,
2013-03-06 19:10:00,36.0,29.8,29.87,SSW,203,5.4,8.1,78,0.00,,,0.35,WUHU216HW,2013-03-07 03:10:00,
2013-03-06 19:15:00,35.5,29.9,29.87,WSW,248,2.2,6.7,80,0.00,,,0.35,WUHU216HW,2013-03-07 03:15:00,
2013-03-06 19:20:00,35.1,29.5,29.87,SW,225,1.6,6.7,80,0.00,,,0.35,WUHU216HW,2013-03-07 03:20:00,
2013-03-06 19:25:00,34.9,29.3,29.87,SW,225,4.0,4.0,80,0.00,,,0.35,WUHU216HW,2013-03-07 03:25:00,
2013-03-06 19:30:00,34.7,29.2,29.87,SW,225,2.5,4.0,80,0.00,,,0.35,WUHU216HW,2013-03-07 03:30:00,
2013-03-06 19:35:00,34.7,28.8,29.87,SW,225,0.4,4.0,79,0.00,,,0.35,WUHU216HW,2013-03-07 03:35:00,
2013-03-06 19:40:00,34.6,28.6,29.87,SW,225,0.9,3.6,79,0.00,,,0.35,WUHU216HW,2013-03-07 03:40:00,
2013-03-06 19:45:00,34.6,28.4,29.87,SW,225,1.3,1.6,78,0.00,,,0.35,WUHU216HW,2013-03-07 03:45:00,
2013-03-06 19:50:00,34.2,28.0,29.88,SSW,203,0.9,1.6,78,0.00,,,0.35,WUHU216HW,2013-03-07 03:50:00,
2013-03-06 19:55:00,33.8,27.9,29.88,SSW,203,1.1,1.8,79,0.00,,,0.35,WUHU216HW,2013-03-07 03:55:00,
2013-03-06 20:00:00,33.7,27.8,29.88,SE,135,1.1,2.5,79,0.00,,,0.35,WUHU216HW,2013-03-07 04:00:00,
2013-03-06 20:05:00,33.5,27.9,29.88,ESE,113,1.8,2.5,80,0.00,,,0.35,WUHU216HW,2013-03-07 04:05:00,
2013-03-06 20:10:00,33.5,28.3,29.88,ESE,113,3.4,3.4,81,0.00,,,0.35,WUHU216HW,2013-03-07 04:10:00,
2013-03-06 20:15:00,33.5,28.3,29.89,ESE,113,0.7,3.4,81,0.00,,,0.35,WUHU216HW,2013-03-07 04:15:00,
2013-03-06 20:20:00,33.3,28.1,29.89,ESE,113,1.3,3.4,81,0.00,,,0.35,WUHU216HW,2013-03-07 04:20:00,
2013-03-06 20:25:00,32.9,27.7,29.89,ESE,113,1.8,2.5,81,0.00,,,0.35,WUHU216HW,2013-03-07 04:25:00,
2013-03-06 20:30:00,33.1,27.9,29.89,ESE,113,2.0,2.9,81,0.00,,,0.35,WUHU216HW,2013-03-07 04:30:00,
2013-03-06 20:35:00,33.3,28.1,29.89,SE,135,2.0,2.9,81,0.00,,,0.35,WUHU216HW,2013-03-07 04:35:00,
2013-03-06 20:40:00,33.3,27.8,29.89,South,180,0.4,2.5,80,0.00,,,0.35,WUHU216HW,2013-03-07 04:40:00,
2013-03-06 20:45:00,32.9,27.5,29.90,South,180,0.2,1.6,80,0.00,,,0.35,WUHU216HW,2013-03-07 04:45:00,
2013-03-06 20:50:00,32.6,27.5,29.90,South,180,0.4,1.3,81,0.00,,,0.35,WUHU216HW,2013-03-07 04:50:00,
2013-03-06 20:55:00,32.0,26.9,29.90,South,180,0.2,1.3,81,0.00,,,0.35,WUHU216HW,2013-03-07 04:55:00,
2013-03-06 21:00:00,31.9,26.5,29.90,South,180,1.3,1.3,80,0.00,,,0.35,WUHU216HW,2013-03-07 05:00:00,
2013-03-06 21:05:00,31.5,26.4,29.90,South,180,0.4,1.8,81,0.00,,,0.35,WUHU216HW,2013-03-07 05:05:00,
2013-03-06 21:10:00,31.3,26.2,29.91,SSE,158,1.8,2.0,81,0.00,,,0.35,WUHU216HW,2013-03-07 05:10:00,
2013-03-06 21:15:00,31.5,26.4,29.91,ESE,113,0.9,2.0,81,0.00,,,0.35,WUHU216HW,2013-03-07 05:15:00,
2013-03-06 21:20:00,31.5,26.1,29.91,SSW,203,0.0,2.0,80,0.00,,,0.35,WUHU216HW,2013-03-07 05:20:00,
2013-03-06 21:25:00,31.1,26.0,29.92,SSW,203,0.7,1.1,81,0.00,,,0.35,WUHU216HW,2013-03-07 05:25:00,
2013-03-06 21:30:00,31.1,26.3,29.91,SSW,203,1.6,1.6,82,0.00,,,0.35,WUHU216HW,2013-03-07 05:30:00,
2013-03-06 21:35:00,31.1,26.0,29.92,SSW,203,0.9,1.6,81,0.00,,,0.35,WUHU216HW,2013-03-07 05:35:00,
2013-03-06 21:40:00,30.8,25.9,29.91,SSW,203,1.1,1.1,82,0.00,,,0.35,WUHU216HW,2013-03-07 05:40:00,
2013-03-06 21:45:00,30.8,25.7,29.92,SSW,203,1.3,1.3,81,0.00,,,0.35,WUHU216HW,2013-03-07 05:45:00,
2013-03-06 21:50:00,31.0,25.8,29.92,SSW,203,0.9,1.3,81,0.00,,,0.35,WUHU216HW,2013-03-07 05:50:00,
2013-03-06 21:55:00,31.0,25.8,29.92,South,180,1.8,1.8,81,0.00,,,0.35,WUHU216HW,2013-03-07 05:55:00,
2013-03-06 22:00:00,31.0,25.8,29.92,South,180,1.8,1.8,81,0.00,,,0.35,WUHU216HW,2013-03-07 06:00:00,
2013-03-06 22:05:00,30.6,25.5,29.93,South,180,1.6,1.8,81,0.00,,,0.35,WUHU216HW,2013-03-07 06:05:00,
2013-03-06 22:10:00,30.6,25.5,29.93,East,90,1.8,2.5,81,0.00,,,0.35,WUHU216HW,2013-03-07 06:10:00,
2013-03-06 22:15:00,30.8,25.7,29.93,East,90,0.0,2.5,81,0.00,,,0.35,WUHU216HW,2013-03-07 06:15:00,
2013-03-06 22:20:00,30.2,25.1,29.93,East,90,0.0,1.1,81,0.00,,,0.35,WUHU216HW,2013-03-07 06:20:00,
2013-03-06 22:25:00,29.9,25.4,29.93,East,90,2.5,2.9,83,0.00,,,0.35,WUHU216HW,2013-03-07 06:25:00,
2013-03-06 22:30:00,30.6,25.7,29.93,ESE,113,0.4,2.9,82,0.00,,,0.35,WUHU216HW,2013-03-07 06:30:00,
2013-03-06 22:35:00,30.6,25.5,29.93,ESE,113,0.7,2.5,81,0.00,,,0.35,WUHU216HW,2013-03-07 06:35:00,
2013-03-06 22:40:00,30.2,25.1,29.93,South,180,0.4,1.6,81,0.00,,,0.35,WUHU216HW,2013-03-07 06:40:00,
2013-03-06 22:45:00,29.9,25.0,29.94,South,180,1.1,1.6,82,0.00,,,0.35,WUHU216HW,2013-03-07 06:45:00,
2013-03-06 22:50:00,29.5,25.0,29.93,East,90,1.6,2.9,83,0.00,,,0.35,WUHU216HW,2013-03-07 06:50:00,
2013-03-06 22:55:00,29.2,24.7,29.94,East,90,0.9,2.9,83,0.00,,,0.35,WUHU216HW,2013-03-07 06:55:00,
2013-03-06 23:00:00,29.3,24.9,29.94,SSE,158,1.3,1.8,83,0.00,,,0.35,WUHU216HW,2013-03-07 07:00:00,
2013-03-06 23:05:00,30.1,24.9,29.94,South,180,2.2,2.2,81,0.00,,,0.35,WUHU216HW,2013-03-07 07:05:00,
2013-03-06 23:10:00,30.8,25.0,29.94,South,180,1.1,2.2,79,0.00,,,0.35,WUHU216HW,2013-03-07 07:10:00,
2013-03-06 23:15:00,31.3,25.3,29.94,South,180,0.9,1.6,78,0.00,,,0.35,WUHU216HW,2013-03-07 07:15:00,
2013-03-06 23:20:00,31.3,25.3,29.94,South,180,0.7,1.6,78,0.00,,,0.35,WUHU216HW,2013-03-07 07:20:00,
2013-03-06 23:25:00,30.8,24.8,29.94,East,90,1.8,2.0,78,0.00,,,0.35,WUHU216HW,2013-03-07 07:25:00,
2013-03-06 23:30:00,30.4,24.7,29.94,SW,225,1.1,2.0,79,0.00,,,0.35,WUHU216HW,2013-03-07 07:30:00,
2013-03-06 23:35:00,29.7,24.6,29.94,South,180,0.9,2.0,81,0.00,,,0.35,WUHU216HW,2013-03-07 07:35:00,
2013-03-06 23:40:00,29.5,24.4,29.94,East,90,2.5,3.1,81,0.00,,,0.35,WUHU216HW,2013-03-07 07:40:00,
2013-03-06 23:45:00,30.8,25.0,29.94,East,90,2.2,3.1,79,0.00,,,0.35,WUHU216HW,2013-03-07 07:45:00,
2013-03-06 23:50:00,31.3,25.3,29.95,ESE,113,1.8,3.4,78,0.00,,,0.35,WUHU216HW,2013-03-07 07:50:00,
2013-03-06 23:55:00,31.7,25.3,29.95,SE,135,6.3,6.3,77,0.00,,,0.35,WUHU216HW,2013-03-07 07:55:00,